Time;durP1;ratioP1;P1;durP2;ratioP2;P2;SDS_P1;SDS_P2;PMS_P1;PMS_P2;Temp;Humidity;BMP_temperature;BMP_pressure;BME280_temperature;BME280_humidity;BME280_pressure;Samples;Min_cycle;Max_cycle;Signal;HPM_P1;HPM_P2
2022/06/19 00:01:06;;;;;;;17.38;2.85;;;14.50;99.90;;;;;;6194520;23;20020;-80
2022/06/19 00:03:43;;;;;;;16.73;2.85;;;14.60;99.90;;;;;;6246469;23;20085;-79
2022/06/19 00:06:09;;;;;;;20.27;3.00;;;14.40;99.90;;;;;;6219327;23;20343;-80
2022/06/19 00:08:35;;;;;;;19.73;2.97;;;14.50;99.90;;;;;;6219587;23;20495;-79
2022/06/19 00:11:02;;;;;;;17.90;3.00;;;14.40;99.90;;;;;;6245775;23;20496;-79
2022/06/19 00:13:28;;;;;;;17.00;2.60;;;14.40;99.90;;;;;;6219381;23;20013;-80
2022/06/19 00:15:54;;;;;;;22.10;2.95;;;14.40;99.90;;;;;;6219689;23;20042;-80
2022/06/19 00:18:21;;;;;;;13.75;2.53;;;14.40;99.90;;;;;;6246504;23;20020;-79
2022/06/19 00:20:46;;;;;;;17.42;2.83;;;14.40;99.90;;;;;;6244884;23;20016;-80
2022/06/19 00:23:12;;;;;;;19.88;3.22;;;14.30;99.90;;;;;;6219154;23;20520;-80
2022/06/19 00:25:39;;;;;;;18.92;2.92;;;14.30;99.90;;;;;;6246182;23;20016;-79
2022/06/19 00:28:05;;;;;;;19.10;3.33;;;14.10;99.90;;;;;;6219446;23;20024;-79
2022/06/19 00:30:31;;;;;;;27.75;3.90;;;14.20;99.90;;;;;;6245931;23;20012;-81
2022/06/19 00:32:58;;;;;;;18.73;2.75;;;14.20;99.90;;;;;;6246235;23;20344;-80
2022/06/19 00:35:26;;;;;;;18.17;3.03;;;14.20;99.90;;;;;;6219380;23;20062;-81
2022/06/19 00:37:53;;;;;;;19.48;4.25;;;14.20;99.90;;;;;;6245850;23;20336;-79
2022/06/19 00:40:19;;;;;;;26.67;4.10;;;14.20;99.90;;;;;;6245983;23;20012;-79
2022/06/19 00:42:44;;;;;;;19.50;3.92;;;14.20;99.90;;;;;;6245881;23;20019;-80
2022/06/19 00:45:42;;;;;;;29.48;4.30;;;14.20;99.90;;;;;;6245735;23;20024;-80
2022/06/19 00:48:22;;;;;;;21.95;3.22;;;14.20;99.90;;;;;;6219267;23;20012;-80
2022/06/19 00:50:51;;;;;;;18.92;3.15;;;14.20;99.90;;;;;;6246025;23;20055;-78
2022/06/19 00:53:27;;;;;;;17.13;2.42;;;14.10;99.90;;;;;;6245874;23;20023;-78
2022/06/19 00:55:53;;;;;;;18.38;2.65;;;14.20;99.90;;;;;;6219396;23;20016;-79
2022/06/19 00:58:27;;;;;;;22.05;3.20;;;14.30;99.90;;;;;;6245628;23;20376;-81
2022/06/19 01:01:01;;;;;;;16.50;2.58;;;14.40;99.90;;;;;;6245647;23;20336;-85
2022/06/19 01:03:35;;;;;;;15.50;2.42;;;14.40;99.90;;;;;;6245980;23;20102;-83
2022/06/19 01:06:01;;;;;;;17.13;2.97;;;14.40;99.90;;;;;;6245648;23;20019;-79
2022/06/19 01:08:27;;;;;;;14.23;2.50;;;14.40;99.90;;;;;;6245800;23;20016;-80
2022/06/19 01:10:53;;;;;;;16.00;2.40;;;14.40;99.90;;;;;;6245657;23;20038;-79
2022/06/19 01:13:22;;;;;;;18.73;3.67;;;14.40;99.90;;;;;;6219016;23;20463;-80
2022/06/19 01:15:49;;;;;;;15.70;3.13;;;14.30;99.90;;;;;;6245925;23;20039;-78
2022/06/19 01:18:15;;;;;;;13.98;2.72;;;14.40;99.90;;;;;;6245828;23;20079;-78
2022/06/19 01:20:42;;;;;;;18.50;2.30;;;14.40;99.90;;;;;;6245180;23;20012;-79
2022/06/19 01:23:24;;;;;;;13.30;2.35;;;14.40;99.90;;;;;;6245486;23;20021;-79
2022/06/19 01:25:52;;;;;;;16.77;2.45;;;14.50;99.90;;;;;;6218750;23;20013;-80
2022/06/19 01:31:11;;;;;;;20.00;3.17;;;14.50;99.90;;;;;;6245170;23;20026;-80
2022/06/19 01:33:47;;;;;;;13.35;1.90;;;14.60;99.90;;;;;;6245485;23;20027;-79
2022/06/19 01:36:14;;;;;;;12.20;2.20;;;14.60;99.90;;;;;;6245042;23;20016;-78
2022/06/19 01:38:43;;;;;;;14.27;2.55;;;14.70;99.90;;;;;;6245323;23;20344;-79
2022/06/19 01:41:14;;;;;;;12.82;2.05;;;14.60;99.90;;;;;;6218661;23;20024;-81
2022/06/19 01:43:40;;;;;;;13.50;2.67;;;14.60;99.90;;;;;;6218359;23;20023;-79
2022/06/19 01:46:06;;;;;;;14.68;2.40;;;14.70;99.90;;;;;;6245728;23;20012;-79
2022/06/19 01:48:33;;;;;;;11.60;1.90;;;14.70;99.90;;;;;;6218869;23;20061;-79
2022/06/19 01:51:02;;;;;;;13.90;2.45;;;14.70;99.90;;;;;;6245476;23;20095;-80
2022/06/19 01:54:07;;;;;;;17.20;2.25;;;14.70;99.90;;;;;;6218631;23;20023;-79
2022/06/19 01:56:33;;;;;;;8.30;1.65;;;14.80;99.90;;;;;;6208257;23;20047;-79
2022/06/19 01:59:05;;;;;;;8.05;1.50;;;14.70;99.90;;;;;;6247223;23;20439;-78
2022/06/19 02:01:33;;;;;;;11.38;2.05;;;14.90;99.90;;;;;;6220638;23;20039;-79
2022/06/19 02:04:00;;;;;;;10.23;1.73;;;14.80;99.90;;;;;;6247453;23;20016;-79
2022/06/19 02:06:35;;;;;;;12.48;1.90;;;14.90;99.90;;;;;;6247590;23;20016;-80
2022/06/19 02:09:02;;;;;;;14.30;1.92;;;14.90;99.90;;;;;;6247437;23;20412;-80
2022/06/19 02:11:30;;;;;;;9.25;1.73;;;14.90;99.90;;;;;;6247219;23;20051;-80
2022/06/19 02:13:58;;;;;;;15.52;2.05;;;14.90;99.90;;;;;;6220269;23;20066;-85
2022/06/19 02:16:24;;;;;;;13.15;1.65;;;14.90;99.90;;;;;;6246988;23;20012;-82
2022/06/19 02:18:52;;;;;;;8.93;1.45;;;14.90;99.90;;;;;;6220713;23;20062;-78
2022/06/19 02:21:40;;;;;;;8.43;1.73;;;14.90;99.90;;;;;;6220367;23;20317;-79
2022/06/19 02:24:08;;;;;;;11.40;1.80;;;14.90;99.90;;;;;;6194794;23;20063;-83
2022/06/19 02:26:36;;;;;;;15.30;2.17;;;14.80;99.90;;;;;;6220568;23;20016;-81
2022/06/19 02:29:03;;;;;;;10.65;1.73;;;14.90;99.90;;;;;;6247192;23;20375;-80
2022/06/19 02:31:31;;;;;;;14.35;1.65;;;14.80;99.90;;;;;;6195356;23;20091;-81
2022/06/19 02:34:03;;;;;;;11.18;1.77;;;14.80;99.90;;;;;;6246777;23;20447;-78
2022/06/19 02:36:44;;;;;;;11.88;2.08;;;14.80;99.90;;;;;;6247273;23;20383;-81
2022/06/19 02:39:16;;;;;;;;;;;14.80;99.90;;;;;;6247607;23;20351;-80
2022/06/19 02:41:54;;;;;;;12.55;1.90;;;14.80;99.90;;;;;;6246972;23;19916;-80
2022/06/19 02:44:20;;;;;;;10.05;1.70;;;14.80;99.90;;;;;;6246978;23;20016;-80
2022/06/19 02:46:46;;;;;;;9.00;1.60;;;14.70;99.90;;;;;;6247115;23;20340;-80
2022/06/19 02:49:12;;;;;;;10.43;2.05;;;14.70;99.90;;;;;;6246883;23;20016;-80
2022/06/19 02:51:37;;;;;;;17.50;2.03;;;14.70;99.90;;;;;;6246812;23;20024;-80
2022/06/19 02:54:03;;;;;;;11.98;2.00;;;14.70;99.90;;;;;;6246815;23;20020;-86
2022/06/19 02:56:29;;;;;;;14.77;2.45;;;14.70;99.90;;;;;;6246929;23;20016;-86
2022/06/19 02:58:54;;;;;;;11.95;2.10;;;14.70;99.90;;;;;;6246984;23;20012;-82
2022/06/19 03:01:20;;;;;;;16.92;2.60;;;14.50;99.90;;;;;;6246548;23;20035;-79
2022/06/19 03:03:46;;;;;;;13.82;2.55;;;14.70;99.90;;;;;;6247206;23;20020;-77
2022/06/19 03:06:11;;;;;;;10.95;2.15;;;14.70;99.90;;;;;;6219643;23;20016;-78
2022/06/19 03:08:37;;;;;;;10.00;1.90;;;14.70;99.90;;;;;;6223473;23;20327;-80
2022/06/19 03:11:06;;;;;;;12.88;2.10;;;14.70;99.90;;;;;;6224755;23;20024;-81
2022/06/19 03:13:32;;;;;;;13.27;2.15;;;14.70;99.90;;;;;;6250633;23;20016;-80
2022/06/19 03:16:02;;;;;;;15.88;2.17;;;14.60;99.90;;;;;;6248193;23;20066;-79
2022/06/19 03:18:29;;;;;;;15.63;2.22;;;14.70;99.90;;;;;;6247071;23;20012;-80
2022/06/19 03:20:55;;;;;;;12.00;2.15;;;14.70;99.90;;;;;;6220157;23;20440;-80
2022/06/19 03:23:20;;;;;;;12.85;2.15;;;14.70;99.90;;;;;;6246635;23;20023;-78
2022/06/19 03:25:46;;;;;;;10.02;2.22;;;14.70;99.90;;;;;;6246618;23;20016;-80
2022/06/19 03:28:11;;;;;;;20.08;2.97;;;14.70;99.90;;;;;;6246754;23;20020;-79
2022/06/19 03:30:37;;;;;;;12.77;2.20;;;14.70;99.90;;;;;;6246616;23;20012;-80
2022/06/19 03:33:03;;;;;;;17.10;2.42;;;14.60;99.90;;;;;;6219678;23;20017;-79
2022/06/19 03:35:29;;;;;;;13.10;2.03;;;14.50;99.90;;;;;;6246346;23;20166;-79
2022/06/19 03:37:55;;;;;;;15.82;2.25;;;14.60;99.90;;;;;;6218998;23;20051;-82
2022/06/19 03:40:21;;;;;;;15.25;2.38;;;14.60;99.90;;;;;;6245918;23;20339;-80
2022/06/19 03:42:46;;;;;;;16.02;2.58;;;14.60;99.90;;;;;;6246415;23;20039;-77
2022/06/19 03:45:12;;;;;;;15.93;2.35;;;14.50;99.90;;;;;;6246536;23;20070;-80
2022/06/19 03:47:39;;;;;;;13.68;2.58;;;14.50;99.90;;;;;;6245869;23;20047;-78
2022/06/19 03:50:06;;;;;;;12.85;2.38;;;14.50;99.90;;;;;;6245774;23;20048;-80
2022/06/19 03:52:32;;;;;;;16.55;1.98;;;14.50;99.90;;;;;;6246342;23;20313;-79
2022/06/19 03:54:58;;;;;;;12.57;2.22;;;14.60;99.90;;;;;;6246687;23;20105;-85
2022/06/19 03:57:23;;;;;;;12.70;1.88;;;14.60;99.90;;;;;;6246551;23;20450;-81
2022/06/19 03:59:49;;;;;;;13.48;2.22;;;14.40;99.90;;;;;;6246505;23;20020;-81
2022/06/19 04:02:15;;;;;;;13.07;2.00;;;14.50;99.90;;;;;;6246484;23;20102;-79
2022/06/19 04:04:41;;;;;;;19.08;3.28;;;14.40;99.90;;;;;;6219502;23;20099;-80
2022/06/19 04:07:11;;;;;;;18.85;2.40;;;14.40;99.90;;;;;;6245921;23;20066;-80
2022/06/19 04:09:36;;;;;;;12.43;2.05;;;14.50;99.90;;;;;;6246171;23;20082;-80
2022/06/19 04:12:02;;;;;;;13.93;2.25;;;14.50;99.90;;;;;;6219296;23;20020;-79
2022/06/19 04:14:28;;;;;;;12.57;2.83;;;14.50;99.90;;;;;;6246111;23;20023;-79
2022/06/19 04:16:54;;;;;;;16.23;2.35;;;14.50;99.90;;;;;;6246672;23;20012;-79
2022/06/19 04:19:19;;;;;;;12.05;2.50;;;14.50;99.90;;;;;;6246297;23;20024;-78
2022/06/19 04:21:46;;;;;;;14.68;2.75;;;14.50;99.90;;;;;;6219660;23;20046;-80
2022/06/19 04:24:14;;;;;;;10.75;2.35;;;14.50;99.90;;;;;;6219640;23;20054;-79
2022/06/19 04:26:40;;;;;;;14.32;1.90;;;14.50;99.90;;;;;;6246178;23;20016;-80
2022/06/19 04:29:07;;;;;;;12.55;1.88;;;14.50;99.90;;;;;;6246181;23;20027;-79
2022/06/19 04:31:34;;;;;;;22.45;2.45;;;14.50;99.90;;;;;;6246357;23;20091;-79
2022/06/19 04:34:00;;;;;;;13.43;1.85;;;14.60;99.90;;;;;;6245941;23;20483;-78
2022/06/19 04:36:28;;;;;;;17.48;2.17;;;14.60;99.90;;;;;;6246326;23;20065;-79
2022/06/19 04:38:56;;;;;;;10.13;1.60;;;14.60;99.90;;;;;;6246160;23;20013;-79
2022/06/19 04:41:26;;;;;;;10.60;1.58;;;14.60;99.90;;;;;;6246056;23;20012;-83
2022/06/19 04:43:53;;;;;;;8.43;1.85;;;14.70;99.90;;;;;;6219694;23;20024;-78
2022/06/19 04:46:19;;;;;;;11.60;1.40;;;14.80;99.90;;;;;;6246031;23;20016;-79
2022/06/19 04:48:45;;;;;;;10.30;1.73;;;14.80;99.90;;;;;;6246167;23;20042;-80
2022/06/19 04:51:12;;;;;;;10.02;1.23;;;15.00;99.90;;;;;;6246114;23;20075;-79
2022/06/19 04:53:39;;;;;;;9.10;1.55;;;14.90;99.90;;;;;;6219221;23;20020;-80
2022/06/19 04:56:06;;;;;;;12.70;1.45;;;15.00;99.90;;;;;;6245876;23;20012;-81
2022/06/19 04:58:31;;;;;;;9.75;1.80;;;15.00;99.90;;;;;;6245702;23;20062;-78
2022/06/19 05:00:57;;;;;;;10.55;1.67;;;15.00;99.90;;;;;;6245928;23;20020;-87
2022/06/19 05:03:24;;;;;;;9.75;1.48;;;15.10;99.90;;;;;;6245772;23;20436;-80
2022/06/19 05:05:53;;;;;;;9.35;1.40;;;15.30;99.90;;;;;;6245905;23;20020;-79
2022/06/19 05:08:18;;;;;;;9.85;1.73;;;15.30;99.90;;;;;;6245717;23;20052;-80
2022/06/19 05:10:44;;;;;;;12.07;2.00;;;15.40;99.90;;;;;;6193581;23;20454;-80
2022/06/19 05:13:21;;;;;;;8.93;1.55;;;15.50;99.90;;;;;;6245839;23;20031;-79
2022/06/19 05:15:48;;;;;;;10.75;1.75;;;15.60;99.90;;;;;;6245751;23;20142;-79
2022/06/19 05:18:15;;;;;;;11.10;1.80;;;15.70;99.90;;;;;;6245670;23;20175;-80
2022/06/19 05:20:42;;;;;;;9.85;1.52;;;15.80;99.90;;;;;;6245683;23;20066;-80
2022/06/19 05:23:09;;;;;;;8.68;1.60;;;15.70;99.90;;;;;;6246221;23;20117;-80
2022/06/19 05:25:35;;;;;;;9.20;1.60;;;15.60;99.90;;;;;;6245690;23;20027;-80
2022/06/19 05:28:01;;;;;;;13.45;1.83;;;15.50;99.90;;;;;;6246006;23;20095;-79
2022/06/19 05:30:27;;;;;;;11.52;1.60;;;15.50;99.90;;;;;;6246378;23;20070;-79
2022/06/19 05:32:52;;;;;;;11.23;1.95;;;15.30;99.90;;;;;;6247874;23;20012;-80
2022/06/19 05:35:19;;;;;;;11.45;1.73;;;15.20;99.90;;;;;;6248131;23;20016;-79
2022/06/19 05:37:44;;;;;;;9.02;1.48;;;15.10;99.90;;;;;;6247671;23;20017;-77
2022/06/19 05:40:10;;;;;;;11.68;1.63;;;15.00;99.90;;;;;;6247964;23;20136;-78
2022/06/19 05:42:37;;;;;;;13.63;1.60;;;14.90;99.90;;;;;;6247877;23;20379;-79
2022/06/19 05:45:04;;;;;;;13.35;1.77;;;14.90;99.90;;;;;;6247751;23;20016;-80
2022/06/19 05:47:30;;;;;;;14.43;2.40;;;14.80;99.90;;;;;;6220373;23;20020;-79
2022/06/19 05:49:58;;;;;;;16.88;1.95;;;14.80;99.90;;;;;;6247888;23;20026;-79
2022/06/19 05:52:25;;;;;;;13.30;1.90;;;14.90;99.90;;;;;;6247530;23;20016;-79
2022/06/19 05:54:52;;;;;;;15.95;2.13;;;14.90;99.90;;;;;;6220825;23;20027;-80
2022/06/19 05:57:18;;;;;;;16.70;2.45;;;15.00;99.90;;;;;;6247276;23;20020;-79
2022/06/19 05:59:44;;;;;;;12.45;2.25;;;15.20;99.90;;;;;;6247240;23;20070;-79
2022/06/19 06:02:13;;;;;;;13.05;2.40;;;15.20;99.90;;;;;;6247422;23;20090;-80
2022/06/19 06:04:39;;;;;;;15.88;2.38;;;15.30;99.90;;;;;;6220525;23;20016;-78
2022/06/19 06:07:11;;;;;;;15.73;2.17;;;15.30;99.90;;;;;;6247231;23;20325;-79
2022/06/19 06:09:37;;;;;;;11.35;1.80;;;15.30;99.90;;;;;;6247380;23;20020;-79
2022/06/19 06:12:04;;;;;;;14.90;1.92;;;15.30;99.90;;;;;;6195463;23;20340;-79
2022/06/19 06:14:30;;;;;;;16.65;2.13;;;15.30;99.90;;;;;;6247441;23;20147;-79
2022/06/19 06:16:56;;;;;;;12.73;1.83;;;15.10;99.90;;;;;;6220422;23;20051;-79
2022/06/19 06:19:21;;;;;;;11.25;1.80;;;15.10;99.90;;;;;;6247408;23;20024;-79
2022/06/19 06:21:47;;;;;;;13.60;2.28;;;15.10;99.90;;;;;;6247130;23;20091;-79
2022/06/19 06:24:15;;;;;;;12.50;2.10;;;15.00;99.90;;;;;;6247020;23;20030;-78
2022/06/19 06:26:41;;;;;;;14.02;2.08;;;14.90;99.90;;;;;;6247040;23;20098;-79
2022/06/19 06:29:07;;;;;;;13.02;2.10;;;14.90;99.90;;;;;;6219965;23;20019;-79
2022/06/19 06:31:34;;;;;;;10.68;1.85;;;14.90;99.90;;;;;;6220350;23;20403;-77
2022/06/19 06:33:59;;;;;;;9.27;1.77;;;14.90;99.90;;;;;;6195633;23;20428;-81
2022/06/19 06:36:26;;;;;;;9.75;1.90;;;14.80;99.90;;;;;;6247259;23;20055;-81
2022/06/19 06:38:52;;;;;;;18.63;2.30;;;14.80;99.90;;;;;;6247417;23;20458;-82
2022/06/19 06:41:18;;;;;;;10.05;1.77;;;14.80;99.90;;;;;;6248455;23;20103;-79
2022/06/19 06:43:45;;;;;;;9.65;1.85;;;14.80;99.90;;;;;;6222134;23;20016;-80
2022/06/19 06:46:14;;;;;;;6.97;1.50;;;14.80;99.90;;;;;;6248627;23;20115;-79
2022/06/19 06:48:41;;;;;;;8.70;1.52;;;14.70;99.90;;;;;;6248208;23;20356;-79
2022/06/19 06:51:10;;;;;;;11.10;1.85;;;14.80;99.90;;;;;;6220871;23;20023;-79
2022/06/19 06:53:37;;;;;;;10.15;1.90;;;14.70;99.90;;;;;;6247005;23;20322;-80
2022/06/19 06:56:03;;;;;;;10.13;2.33;;;14.70;99.90;;;;;;6247242;23;20344;-79
2022/06/19 06:58:29;;;;;;;10.30;1.48;;;14.80;99.90;;;;;;6247022;23;20066;-81
2022/06/19 07:00:54;;;;;;;12.43;1.67;;;14.80;99.90;;;;;;6220204;23;20374;-80
2022/06/19 07:03:21;;;;;;;11.57;1.60;;;14.90;99.90;;;;;;6247192;23;20020;-80
2022/06/19 07:05:47;;;;;;;9.98;2.38;;;14.90;99.90;;;;;;6220380;23;20016;-79
2022/06/19 07:08:12;;;;;;;8.50;1.50;;;15.00;99.90;;;;;;6246866;23;20070;-80
2022/06/19 07:10:38;;;;;;;9.65;1.80;;;15.20;99.90;;;;;;6220485;23;20012;-80
2022/06/19 07:13:04;;;;;;;12.02;1.92;;;15.20;99.90;;;;;;6220192;23;20042;-80
2022/06/19 07:15:30;;;;;;;10.25;1.63;;;15.20;99.90;;;;;;6246554;23;20024;-80
2022/06/19 07:17:55;;;;;;;11.70;1.83;;;15.30;99.90;;;;;;6246775;23;20012;-79
2022/06/19 07:20:21;;;;;;;9.77;1.77;;;15.40;99.90;;;;;;6246579;23;20070;-84
2022/06/19 07:22:46;;;;;;;11.05;1.77;;;15.50;99.90;;;;;;6219549;23;20016;-80
2022/06/19 07:25:18;;;;;;;11.88;1.83;;;15.40;99.90;;;;;;6246367;23;20012;-81
2022/06/19 07:27:44;;;;;;;10.70;2.00;;;15.30;99.90;;;;;;6219644;23;20344;-81
2022/06/19 07:30:19;;;;;;;14.10;2.22;;;15.20;99.90;;;;;;6246365;23;20016;-80
2022/06/19 07:32:44;;;;;;;13.15;2.22;;;15.20;99.90;;;;;;6219556;23;20574;-79
2022/06/19 07:35:10;;;;;;;12.18;1.90;;;15.20;99.90;;;;;;6246416;23;20051;-80
2022/06/19 07:37:36;;;;;;;11.98;1.90;;;15.10;99.90;;;;;;6245584;23;20055;-80
2022/06/19 07:40:04;;;;;;;10.32;1.70;;;15.00;99.90;;;;;;6245990;23;20019;-80
2022/06/19 07:42:29;;;;;;;9.00;1.88;;;15.10;99.90;;;;;;6246168;23;20092;-81
2022/06/19 07:44:55;;;;;;;10.93;1.83;;;15.10;99.90;;;;;;6194395;23;20405;-80
2022/06/19 07:50:15;;;;;;;18.35;2.55;;;14.90;99.90;;;;;;6219406;23;20039;-81
2022/06/19 07:52:46;;;;;;;12.13;2.00;;;14.80;99.90;;;;;;6219146;23;20017;-80
2022/06/19 07:55:15;;;;;;;10.10;1.80;;;14.80;99.90;;;;;;6246247;23;20398;-82
2022/06/19 07:57:41;;;;;;;10.98;1.75;;;14.80;99.90;;;;;;6219256;23;20024;-80
2022/06/19 08:00:11;;;;;;;13.77;2.47;;;14.80;99.90;;;;;;6245799;23;20347;-80
2022/06/19 08:02:37;;;;;;;10.90;1.90;;;14.80;99.90;;;;;;6245799;23;20452;-80
2022/06/19 08:05:05;;;;;;;12.20;1.95;;;14.80;99.90;;;;;;6245979;23;20036;-80
2022/06/19 08:07:31;;;;;;;13.35;1.70;;;14.90;99.90;;;;;;6246051;23;20031;-80
2022/06/19 08:09:56;;;;;;;14.80;1.75;;;14.80;99.90;;;;;;6246637;23;20095;-80
2022/06/19 08:12:22;;;;;;;12.13;2.30;;;14.90;99.90;;;;;;6219863;23;20020;-80
2022/06/19 08:14:48;;;;;;;12.43;2.38;;;14.90;99.90;;;;;;6246395;23;20020;-79
2022/06/19 08:17:14;;;;;;;20.52;2.65;;;15.10;99.90;;;;;;6219705;23;20016;-80
2022/06/19 08:19:39;;;;;;;15.05;2.50;;;15.20;99.90;;;;;;6219443;23;20424;-79
2022/06/19 08:22:05;;;;;;;12.90;2.50;;;15.30;99.90;;;;;;6246507;23;20012;-80
2022/06/19 08:24:30;;;;;;;13.82;2.22;;;15.50;99.90;;;;;;6245736;23;20031;-80
2022/06/19 08:27:03;;;;;;;11.07;2.20;;;15.70;99.90;;;;;;6246119;23;20020;-80
2022/06/19 08:29:28;;;;;;;16.50;2.65;;;15.80;99.90;;;;;;6245802;23;20336;-80
2022/06/19 08:31:54;;;;;;;14.43;2.38;;;15.80;99.90;;;;;;6246249;23;20020;-79
2022/06/19 08:34:20;;;;;;;9.73;2.20;;;15.80;99.90;;;;;;6219179;23;20060;-82
2022/06/19 08:36:45;;;;;;;12.07;2.10;;;15.80;99.90;;;;;;6246238;23;20390;-82
2022/06/19 08:39:14;;;;;;;13.80;2.25;;;15.80;99.90;;;;;;6245989;23;20491;-80
2022/06/19 08:41:59;;;;;;;19.15;2.28;;;15.80;99.90;;;;;;6245790;23;20468;-79
2022/06/19 08:44:52;;;;;;;12.48;1.90;;;15.70;99.90;;;;;;6219012;23;20339;-79
2022/06/19 08:47:33;;;;;;;14.18;2.85;;;15.60;99.90;;;;;;6219001;23;20455;-80
2022/06/19 08:50:20;;;;;;;14.40;2.42;;;15.60;99.90;;;;;;6218768;23;20016;-79
2022/06/19 08:52:55;;;;;;;14.95;2.25;;;15.60;99.90;;;;;;6245831;23;20023;-80
2022/06/19 08:55:43;;;;;;;11.18;1.85;;;15.60;99.90;;;;;;6169619;23;20079;-80
2022/06/19 08:58:12;;;;;;;12.38;2.00;;;15.50;99.90;;;;;;6246060;23;20016;-80
2022/06/19 09:00:37;;;;;;;13.35;2.17;;;15.60;99.90;;;;;;6246599;23;20337;-80
2022/06/19 09:03:16;;;;;;;10.18;2.10;;;15.50;99.90;;;;;;6219426;23;20078;-80
2022/06/19 09:05:47;;;;;;;13.80;2.30;;;15.50;99.90;;;;;;6218641;23;20020;-80
2022/06/19 09:08:38;;;;;;;15.70;3.10;;;15.50;99.90;;;;;;6219265;23;20498;-80
2022/06/19 09:11:19;;;;;;;13.40;2.08;;;15.50;99.90;;;;;;6219022;23;20095;-83
2022/06/19 09:13:54;;;;;;;;;;;15.50;99.90;;;;;;6219531;23;20073;-80
2022/06/19 09:16:49;;;;;;;12.85;2.35;;;15.50;99.90;;;;;;6245835;23;19954;-81
2022/06/19 09:19:24;;;;;;;12.20;2.30;;;15.50;99.90;;;;;;6218880;23;20027;-80
2022/06/19 09:22:31;;;;;;;13.75;2.33;;;15.70;99.90;;;;;;6245636;23;20012;-80
2022/06/19 09:25:35;;;;;;;13.02;2.30;;;15.80;99.90;;;;;;6240970;23;20483;-80
2022/06/19 09:28:07;;;;;;;10.80;2.00;;;15.80;99.90;;;;;;6245431;23;20020;-81
2022/06/19 09:30:41;;;;;;;13.27;2.58;;;15.90;99.90;;;;;;6218643;23;20012;-80
2022/06/19 09:33:22;;;;;;;16.83;2.08;;;16.00;99.90;;;;;;6245394;23;20074;-80
2022/06/19 09:35:56;;;;;;;13.65;2.17;;;16.20;99.90;;;;;;6245415;23;20070;-80
2022/06/19 09:38:35;;;;;;;14.70;2.08;;;16.20;99.90;;;;;;6245470;23;20016;-80
2022/06/19 09:41:05;;;;;;;11.80;2.28;;;16.00;99.90;;;;;;6218642;23;20062;-80
2022/06/19 09:43:47;;;;;;;16.67;2.25;;;15.70;99.90;;;;;;6218590;23;20121;-81
2022/06/19 09:46:18;;;;;;;11.68;1.85;;;15.70;99.90;;;;;;6218593;23;20313;-79
2022/06/19 09:49:14;;;;;;;16.38;2.40;;;15.70;99.90;;;;;;6245335;23;20340;-79
2022/06/19 09:51:48;;;;;;;9.98;1.92;;;15.60;99.90;;;;;;6245431;23;20020;-80
2022/06/19 09:54:26;;;;;;;9.50;1.98;;;15.60;99.90;;;;;;6245215;23;20020;-80
2022/06/19 09:57:01;;;;;;;10.98;2.22;;;15.60;99.90;;;;;;6218153;23;20023;-85
2022/06/19 09:59:40;;;;;;;9.73;1.80;;;15.60;99.90;;;;;;6245236;23;20100;-81
2022/06/19 10:02:37;;;;;;;12.40;2.10;;;15.60;99.90;;;;;;6245335;23;20020;-80
2022/06/19 10:05:12;;;;;;;15.90;2.65;;;15.60;99.90;;;;;;6245407;23;20019;-80
2022/06/19 10:07:44;;;;;;;12.32;2.15;;;15.60;99.90;;;;;;6193284;23;20022;-82
2022/06/19 10:10:22;;;;;;;10.30;1.67;;;15.90;99.90;;;;;;6219197;23;20052;-80
2022/06/19 10:12:51;;;;;;;12.35;2.50;;;16.10;99.90;;;;;;6245775;23;20443;-79
2022/06/19 10:15:23;;;;;;;7.38;1.58;;;16.30;99.90;;;;;;6219019;23;20028;-79
2022/06/19 10:18:01;;;;;;;12.82;1.90;;;16.50;99.90;;;;;;6247649;23;20093;-81
2022/06/19 10:20:37;;;;;;;13.98;1.83;;;16.70;99.90;;;;;;6247931;23;20305;-79
2022/06/19 10:23:23;;;;;;;12.85;1.85;;;16.80;99.90;;;;;;6247983;23;20059;-80
2022/06/19 10:26:18;;;;;;;6.63;1.70;;;16.90;99.90;;;;;;6220833;23;20012;-80
2022/06/19 10:29:12;;;;;;;16.58;2.55;;;16.80;99.90;;;;;;6221502;23;20089;-79
2022/06/19 10:31:57;;;;;;;11.15;1.52;;;16.80;99.90;;;;;;6199270;23;20024;-80
2022/06/19 10:34:33;;;;;;;11.38;1.83;;;16.90;99.90;;;;;;6221327;23;20070;-81
2022/06/19 10:37:11;;;;;;;9.57;2.22;;;17.00;99.90;;;;;;6221109;23;20321;-80
2022/06/19 10:39:46;;;;;;;8.35;1.50;;;17.30;99.90;;;;;;6221274;23;20028;-80
2022/06/19 10:42:32;;;;;;;11.38;1.85;;;17.60;99.90;;;;;;6247614;23;20016;-80
2022/06/19 10:45:21;;;;;;;7.38;1.40;;;17.60;99.90;;;;;;6154501;23;20323;-81
2022/06/19 10:48:19;;;;;;;10.00;1.63;;;17.60;99.90;;;;;;6130411;23;20025;-79
2022/06/19 10:51:08;;;;;;;7.15;2.03;;;17.70;99.90;;;;;;6154586;23;20080;-81
2022/06/19 10:53:48;;;;;;;7.32;1.80;;;17.70;99.90;;;;;;6067703;23;20042;-82
2022/06/19 10:56:20;;;;;;;7.70;1.60;;;17.60;99.90;;;;;;6067023;23;20023;-80
2022/06/19 10:58:45;;;;;;;9.75;1.73;;;17.40;99.90;;;;;;6066837;23;20019;-80
2022/06/19 11:04:06;;;;;;;12.90;1.92;;;17.30;99.90;;;;;;6067088;23;20343;-79
2022/06/19 11:04:09;;;;;;;7.15;1.52;;;17.40;99.90;;;;;;6067017;23;20063;-80
2022/06/19 11:07:04;;;;;;;9.10;1.30;;;17.30;99.90;;;;;;6067304;23;20054;-79
2022/06/19 11:09:42;;;;;;;8.68;1.55;;;17.20;99.90;;;;;;6067255;23;20378;-80
2022/06/19 11:12:37;;;;;;;9.25;1.42;;;17.10;99.90;;;;;;6042819;23;20392;-80
2022/06/19 11:15:08;;;;;;;7.07;1.50;;;17.00;99.90;;;;;;5930460;24;20539;-80
2022/06/19 11:17:40;;;;;;;11.90;1.80;;;17.00;99.90;;;;;;5952975;24;20103;-81
2022/06/19 11:20:32;;;;;;;7.35;1.38;;;17.30;99.90;;;;;;5953579;24;20099;-80
2022/06/19 11:22:59;;;;;;;8.05;1.38;;;17.50;99.90;;;;;;5949923;24;20025;-81
2022/06/19 11:25:34;;;;;;;9.35;1.52;;;17.60;99.90;;;;;;5930476;24;20024;-80
2022/06/19 11:28:17;;;;;;;8.27;1.70;;;17.50;99.90;;;;;;5907160;24;20025;-81
2022/06/19 11:30:51;;;;;;;7.70;1.80;;;17.50;99.90;;;;;;6017715;23;20387;-81
2022/06/19 11:33:38;;;;;;;6.00;1.50;;;17.40;99.90;;;;;;6066742;23;20078;-80
2022/06/19 11:36:08;;;;;;;6.28;1.48;;;17.30;99.90;;;;;;6042004;23;20066;-80
2022/06/19 11:38:43;;;;;;;7.60;1.67;;;17.30;99.90;;;;;;6042939;23;20033;-79
2022/06/19 11:41:20;;;;;;;8.43;1.63;;;17.40;99.90;;;;;;6066454;23;20455;-81
2022/06/19 11:43:59;;;;;;;10.18;1.42;;;17.50;99.90;;;;;;6066707;23;20074;-80
2022/06/19 11:46:26;;;;;;;12.55;1.67;;;17.60;99.90;;;;;;6042627;23;20438;-80
2022/06/19 11:48:52;;;;;;;6.93;1.27;;;17.50;99.90;;;;;;6066497;23;20090;-80
2022/06/19 11:51:22;;;;;;;10.32;1.65;;;17.40;99.90;;;;;;6081994;23;20091;-80
2022/06/19 11:53:54;;;;;;;7.82;1.60;;;17.40;99.90;;;;;;6220221;23;20021;-81
2022/06/19 11:56:33;;;;;;;8.30;1.63;;;17.40;99.90;;;;;;6246913;23;20020;-80
2022/06/19 11:59:03;;;;;;;8.68;1.40;;;17.20;99.90;;;;;;6246584;23;20373;-80
2022/06/19 12:01:41;;;;;;;16.25;1.60;;;17.30;99.90;;;;;;6246970;23;20016;-80
2022/06/19 12:04:23;;;;;;;9.18;1.63;;;17.20;99.90;;;;;;6220782;23;20027;-82
2022/06/19 12:06:51;;;;;;;5.45;1.20;;;17.00;99.90;;;;;;6220109;23;20080;-80
2022/06/19 12:09:29;;;;;;;7.97;1.20;;;16.90;99.90;;;;;;6220287;23;20352;-78
2022/06/19 12:12:05;;;;;;;7.70;1.60;;;16.80;99.90;;;;;;6195446;23;20527;-79
2022/06/19 12:14:52;;;;;;;10.80;1.48;;;16.80;99.90;;;;;;6248471;23;20103;-80
2022/06/19 12:17:30;;;;;;;8.70;1.65;;;16.70;99.90;;;;;;6248833;23;20023;-79
2022/06/19 12:20:00;;;;;;;8.52;1.45;;;16.70;99.90;;;;;;6247597;23;20085;-81
2022/06/19 12:22:50;;;;;;;4.47;1.10;;;16.70;99.90;;;;;;6248472;23;20019;-81
2022/06/19 12:25:32;;;;;;;5.32;1.20;;;16.80;99.90;;;;;;6248709;23;20020;-83
2022/06/19 12:28:32;;;;;;;6.07;1.20;;;17.30;99.90;;;;;;6220334;23;20475;-81
2022/06/19 12:31:04;;;;;;;4.75;0.90;;;18.50;99.90;;;;;;6221487;23;20022;-81
2022/06/19 12:33:51;;;;;;;4.75;1.00;;;19.70;99.90;;;;;;6247167;23;20027;-80
2022/06/19 12:36:29;;;;;;;4.97;0.98;;;21.00;99.90;;;;;;6247259;23;20031;-80
2022/06/19 12:38:55;;;;;;;6.78;1.20;;;21.80;99.90;;;;;;6243173;23;20465;-81
2022/06/19 12:41:40;;;;;;;3.88;1.30;;;22.40;94.50;;;;;;6218035;23;20024;-82
2022/06/19 12:44:40;;;;;;;7.63;1.17;;;22.60;82.20;;;;;;6244948;23;20023;-83
2022/06/19 12:47:11;;;;;;;2.53;0.70;;;22.30;86.60;;;;;;6192309;23;20020;-82
2022/06/19 12:49:42;;;;;;;3.38;0.70;;;21.90;94.60;;;;;;6245333;23;20066;-82
2022/06/19 12:52:22;;;;;;;6.30;1.30;;;21.60;93.60;;;;;;6243441;23;20020;-83
2022/06/19 12:55:15;;;;;;;3.97;0.90;;;21.40;95.80;;;;;;6244618;23;20347;-83
2022/06/19 12:58:07;;;;;;;4.90;1.08;;;21.30;95.30;;;;;;6245265;23;20256;-82
2022/06/19 13:00:48;;;;;;;4.43;1.13;;;21.00;92.60;;;;;;6216860;23;20467;-82
2022/06/19 13:03:28;;;;;;;;;;;20.50;97.90;;;;;;6244914;23;20016;-83
2022/06/19 13:05:56;;;;;;;4.03;1.00;;;20.00;97.20;;;;;;6244905;23;19990;-81
2022/06/19 13:08:57;;;;;;;5.60;0.90;;;19.60;99.90;;;;;;6217645;23;20023;-82